sensor_id;sensor_type;location;lat;lon;timestamp;P1;durP1;ratioP1;P2;durP2;ratioP2
13435;SDS011;6790;49.520;8.504;2023-01-19T00:00:42;5.03;;;3.97;;
13435;SDS011;6790;49.520;8.504;2023-01-19T00:03:08;9.13;;;4.57;;
13435;SDS011;6790;49.520;8.504;2023-01-19T00:05:40;3.83;;;3.03;;
13435;SDS011;6790;49.520;8.504;2023-01-19T00:08:09;7.07;;;5.20;;
13435;SDS011;6790;49.520;8.504;2023-01-19T00:10:39;4.50;;;3.53;;
13435;SDS011;6790;49.520;8.504;2023-01-19T00:13:06;9.17;;;4.80;;
13435;SDS011;6790;49.520;8.504;2023-01-19T00:15:32;4.40;;;3.07;;
13435;SDS011;6790;49.520;8.504;2023-01-19T00:17:58;5.93;;;4.80;;
13435;SDS011;6790;49.520;8.504;2023-01-19T00:20:23;9.90;;;4.43;;
13435;SDS011;6790;49.520;8.504;2023-01-19T00:22:49;5.10;;;3.03;;
13435;SDS011;6790;49.520;8.504;2023-01-19T00:25:16;4.93;;;3.70;;
13435;SDS011;6790;49.520;8.504;2023-01-19T00:27:41;7.97;;;5.00;;
13435;SDS011;6790;49.520;8.504;2023-01-19T00:30:13;8.90;;;5.77;;
13435;SDS011;6790;49.520;8.504;2023-01-19T00:32:40;9.33;;;5.70;;
13435;SDS011;6790;49.520;8.504;2023-01-19T00:35:06;4.77;;;4.10;;
13435;SDS011;6790;49.520;8.504;2023-01-19T00:37:32;3.73;;;3.00;;
13435;SDS011;6790;49.520;8.504;2023-01-19T00:39:57;4.50;;;3.20;;
13435;SDS011;6790;49.520;8.504;2023-01-19T00:42:23;6.03;;;4.07;;
13435;SDS011;6790;49.520;8.504;2023-01-19T00:45:08;6.00;;;3.60;;
13435;SDS011;6790;49.520;8.504;2023-01-19T00:47:46;6.67;;;4.10;;
13435;SDS011;6790;49.520;8.504;2023-01-19T00:50:13;5.73;;;3.90;;
13435;SDS011;6790;49.520;8.504;2023-01-19T00:52:41;4.13;;;2.97;;
13435;SDS011;6790;49.520;8.504;2023-01-19T00:55:09;5.47;;;3.87;;
13435;SDS011;6790;49.520;8.504;2023-01-19T00:57:37;9.13;;;3.40;;
13435;SDS011;6790;49.520;8.504;2023-01-19T01:00:04;7.37;;;3.77;;
13435;SDS011;6790;49.520;8.504;2023-01-19T01:02:36;6.97;;;4.70;;
13435;SDS011;6790;49.520;8.504;2023-01-19T01:05:03;9.83;;;6.07;;
13435;SDS011;6790;49.520;8.504;2023-01-19T01:07:30;9.63;;;5.67;;
13435;SDS011;6790;49.520;8.504;2023-01-19T01:10:05;9.47;;;3.93;;
13435;SDS011;6790;49.520;8.504;2023-01-19T01:12:33;10.83;;;5.97;;
13435;SDS011;6790;49.520;8.504;2023-01-19T01:14:59;15.93;;;5.73;;
13435;SDS011;6790;49.520;8.504;2023-01-19T01:17:25;9.47;;;5.23;;
13435;SDS011;6790;49.520;8.504;2023-01-19T01:19:51;9.17;;;5.87;;
13435;SDS011;6790;49.520;8.504;2023-01-19T01:22:17;9.60;;;4.93;;
13435;SDS011;6790;49.520;8.504;2023-01-19T01:24:42;5.93;;;2.77;;
13435;SDS011;6790;49.520;8.504;2023-01-19T01:27:08;12.80;;;5.07;;
13435;SDS011;6790;49.520;8.504;2023-01-19T01:29:34;3.87;;;3.40;;
13435;SDS011;6790;49.520;8.504;2023-01-19T01:32:00;4.33;;;3.83;;
13435;SDS011;6790;49.520;8.504;2023-01-19T01:34:26;7.03;;;4.60;;
13435;SDS011;6790;49.520;8.504;2023-01-19T01:36:52;8.43;;;5.97;;
13435;SDS011;6790;49.520;8.504;2023-01-19T01:39:18;3.97;;;3.57;;
13435;SDS011;6790;49.520;8.504;2023-01-19T01:41:45;7.93;;;4.20;;
13435;SDS011;6790;49.520;8.504;2023-01-19T01:47:16;8.63;;;5.03;;
13435;SDS011;6790;49.520;8.504;2023-01-19T01:52:32;9.00;;;4.63;;
13435;SDS011;6790;49.520;8.504;2023-01-19T01:55:01;7.30;;;4.23;;
13435;SDS011;6790;49.520;8.504;2023-01-19T01:57:31;8.50;;;4.73;;
13435;SDS011;6790;49.520;8.504;2023-01-19T02:00:00;10.93;;;6.27;;
13435;SDS011;6790;49.520;8.504;2023-01-19T02:02:27;12.37;;;6.17;;
13435;SDS011;6790;49.520;8.504;2023-01-19T02:05:16;8.73;;;4.87;;
13435;SDS011;6790;49.520;8.504;2023-01-19T02:11:27;6.87;;;4.73;;
13435;SDS011;6790;49.520;8.504;2023-01-19T02:14:13;8.27;;;5.30;;
13435;SDS011;6790;49.520;8.504;2023-01-19T02:16:39;4.70;;;3.20;;
13435;SDS011;6790;49.520;8.504;2023-01-19T02:19:06;12.20;;;6.27;;
13435;SDS011;6790;49.520;8.504;2023-01-19T02:24:28;7.00;;;4.23;;
13435;SDS011;6790;49.520;8.504;2023-01-19T02:26:54;4.37;;;3.37;;
13435;SDS011;6790;49.520;8.504;2023-01-19T02:29:21;10.03;;;6.27;;
13435;SDS011;6790;49.520;8.504;2023-01-19T02:31:50;8.83;;;6.13;;
13435;SDS011;6790;49.520;8.504;2023-01-19T02:34:17;5.03;;;3.50;;
13435;SDS011;6790;49.520;8.504;2023-01-19T02:36:51;8.57;;;6.30;;
13435;SDS011;6790;49.520;8.504;2023-01-19T02:39:24;9.27;;;6.33;;
13435;SDS011;6790;49.520;8.504;2023-01-19T02:42:02;14.07;;;7.07;;
13435;SDS011;6790;49.520;8.504;2023-01-19T02:44:33;11.10;;;6.67;;
13435;SDS011;6790;49.520;8.504;2023-01-19T02:47:01;14.73;;;7.63;;
13435;SDS011;6790;49.520;8.504;2023-01-19T02:49:27;10.43;;;6.60;;
13435;SDS011;6790;49.520;8.504;2023-01-19T02:51:56;9.03;;;5.33;;
13435;SDS011;6790;49.520;8.504;2023-01-19T03:09:09;7.53;;;3.73;;
13435;SDS011;6790;49.520;8.504;2023-01-19T03:11:49;13.93;;;6.33;;
13435;SDS011;6790;49.520;8.504;2023-01-19T03:14:25;8.47;;;5.73;;
13435;SDS011;6790;49.520;8.504;2023-01-19T03:16:55;4.73;;;4.23;;
13435;SDS011;6790;49.520;8.504;2023-01-19T03:19:26;9.77;;;5.83;;
13435;SDS011;6790;49.520;8.504;2023-01-19T03:21:59;6.33;;;4.70;;
13435;SDS011;6790;49.520;8.504;2023-01-19T03:24:30;10.33;;;5.57;;
13435;SDS011;6790;49.520;8.504;2023-01-19T03:27:12;9.27;;;5.83;;
13435;SDS011;6790;49.520;8.504;2023-01-19T03:29:46;13.30;;;6.77;;
13435;SDS011;6790;49.520;8.504;2023-01-19T03:32:17;6.63;;;5.43;;
13435;SDS011;6790;49.520;8.504;2023-01-19T03:34:49;11.13;;;6.23;;
13435;SDS011;6790;49.520;8.504;2023-01-19T03:37:16;10.70;;;5.13;;
13435;SDS011;6790;49.520;8.504;2023-01-19T03:39:45;14.63;;;7.70;;
13435;SDS011;6790;49.520;8.504;2023-01-19T03:42:12;11.20;;;6.77;;
13435;SDS011;6790;49.520;8.504;2023-01-19T03:44:40;10.33;;;6.87;;
13435;SDS011;6790;49.520;8.504;2023-01-19T03:47:08;9.73;;;4.67;;
13435;SDS011;6790;49.520;8.504;2023-01-19T03:49:36;13.60;;;5.53;;
13435;SDS011;6790;49.520;8.504;2023-01-19T03:52:03;10.90;;;7.17;;
13435;SDS011;6790;49.520;8.504;2023-01-19T03:54:29;11.27;;;5.73;;
13435;SDS011;6790;49.520;8.504;2023-01-19T03:56:56;14.87;;;8.50;;
13435;SDS011;6790;49.520;8.504;2023-01-19T03:59:22;10.17;;;6.23;;
13435;SDS011;6790;49.520;8.504;2023-01-19T04:01:47;11.77;;;6.47;;
13435;SDS011;6790;49.520;8.504;2023-01-19T04:04:13;13.80;;;8.83;;
13435;SDS011;6790;49.520;8.504;2023-01-19T04:06:39;8.33;;;5.80;;
13435;SDS011;6790;49.520;8.504;2023-01-19T04:09:06;11.27;;;6.90;;
13435;SDS011;6790;49.520;8.504;2023-01-19T04:11:32;8.20;;;5.67;;
13435;SDS011;6790;49.520;8.504;2023-01-19T04:13:58;8.03;;;5.00;;
13435;SDS011;6790;49.520;8.504;2023-01-19T04:16:23;11.57;;;5.17;;
13435;SDS011;6790;49.520;8.504;2023-01-19T04:18:49;5.80;;;4.07;;
13435;SDS011;6790;49.520;8.504;2023-01-19T04:21:16;9.97;;;5.73;;
13435;SDS011;6790;49.520;8.504;2023-01-19T04:23:44;13.07;;;7.93;;
13435;SDS011;6790;49.520;8.504;2023-01-19T04:26:10;12.40;;;6.40;;
13435;SDS011;6790;49.520;8.504;2023-01-19T04:28:36;10.33;;;5.93;;
13435;SDS011;6790;49.520;8.504;2023-01-19T04:31:02;15.63;;;6.83;;
13435;SDS011;6790;49.520;8.504;2023-01-19T04:33:29;6.40;;;4.97;;
13435;SDS011;6790;49.520;8.504;2023-01-19T04:35:55;13.63;;;7.10;;
13435;SDS011;6790;49.520;8.504;2023-01-19T04:38:22;10.40;;;6.63;;
13435;SDS011;6790;49.520;8.504;2023-01-19T04:40:49;13.33;;;6.93;;
13435;SDS011;6790;49.520;8.504;2023-01-19T04:43:16;16.40;;;8.20;;
13435;SDS011;6790;49.520;8.504;2023-01-19T04:45:43;9.20;;;5.13;;
13435;SDS011;6790;49.520;8.504;2023-01-19T04:48:10;16.63;;;6.67;;
13435;SDS011;6790;49.520;8.504;2023-01-19T04:50:36;8.73;;;5.77;;
13435;SDS011;6790;49.520;8.504;2023-01-19T04:53:03;10.47;;;5.93;;
13435;SDS011;6790;49.520;8.504;2023-01-19T04:55:28;11.93;;;7.13;;
13435;SDS011;6790;49.520;8.504;2023-01-19T04:57:54;13.67;;;7.53;;
13435;SDS011;6790;49.520;8.504;2023-01-19T05:00:20;15.30;;;7.43;;
13435;SDS011;6790;49.520;8.504;2023-01-19T05:02:47;8.53;;;5.83;;
13435;SDS011;6790;49.520;8.504;2023-01-19T05:05:13;8.17;;;5.40;;
13435;SDS011;6790;49.520;8.504;2023-01-19T05:07:39;11.30;;;7.07;;
13435;SDS011;6790;49.520;8.504;2023-01-19T05:10:05;8.37;;;6.67;;
13435;SDS011;6790;49.520;8.504;2023-01-19T05:12:32;13.77;;;8.63;;
13435;SDS011;6790;49.520;8.504;2023-01-19T05:14:57;12.70;;;6.97;;
13435;SDS011;6790;49.520;8.504;2023-01-19T05:17:23;10.27;;;6.27;;
13435;SDS011;6790;49.520;8.504;2023-01-19T05:19:49;9.07;;;4.80;;
13435;SDS011;6790;49.520;8.504;2023-01-19T05:22:15;9.37;;;6.27;;
13435;SDS011;6790;49.520;8.504;2023-01-19T05:24:41;7.67;;;5.53;;
13435;SDS011;6790;49.520;8.504;2023-01-19T05:27:06;9.83;;;5.07;;
13435;SDS011;6790;49.520;8.504;2023-01-19T05:29:32;8.93;;;5.97;;
13435;SDS011;6790;49.520;8.504;2023-01-19T05:31:58;20.90;;;8.33;;
13435;SDS011;6790;49.520;8.504;2023-01-19T05:34:25;15.70;;;8.60;;
13435;SDS011;6790;49.520;8.504;2023-01-19T05:36:50;20.40;;;8.57;;
13435;SDS011;6790;49.520;8.504;2023-01-19T05:39:16;13.53;;;8.90;;
13435;SDS011;6790;49.520;8.504;2023-01-19T05:41:42;18.20;;;7.53;;
13435;SDS011;6790;49.520;8.504;2023-01-19T05:44:09;15.13;;;7.93;;
13435;SDS011;6790;49.520;8.504;2023-01-19T05:46:36;6.73;;;4.93;;
13435;SDS011;6790;49.520;8.504;2023-01-19T05:49:03;15.23;;;10.00;;
13435;SDS011;6790;49.520;8.504;2023-01-19T05:51:35;18.93;;;7.83;;
13435;SDS011;6790;49.520;8.504;2023-01-19T05:54:09;10.33;;;7.50;;
13435;SDS011;6790;49.520;8.504;2023-01-19T05:56:39;7.57;;;5.67;;
13435;SDS011;6790;49.520;8.504;2023-01-19T05:59:05;7.43;;;4.70;;
13435;SDS011;6790;49.520;8.504;2023-01-19T06:01:31;10.43;;;5.67;;
13435;SDS011;6790;49.520;8.504;2023-01-19T06:04:01;6.20;;;4.67;;
13435;SDS011;6790;49.520;8.504;2023-01-19T06:06:27;11.73;;;7.90;;
13435;SDS011;6790;49.520;8.504;2023-01-19T06:08:52;10.70;;;7.67;;
13435;SDS011;6790;49.520;8.504;2023-01-19T06:11:18;16.13;;;9.47;;
13435;SDS011;6790;49.520;8.504;2023-01-19T06:13:44;19.67;;;12.33;;
13435;SDS011;6790;49.520;8.504;2023-01-19T06:16:11;10.13;;;7.13;;
13435;SDS011;6790;49.520;8.504;2023-01-19T06:18:37;13.97;;;7.43;;
13435;SDS011;6790;49.520;8.504;2023-01-19T06:21:04;11.83;;;7.40;;
13435;SDS011;6790;49.520;8.504;2023-01-19T06:23:31;13.10;;;5.77;;
13435;SDS011;6790;49.520;8.504;2023-01-19T06:25:59;8.83;;;4.57;;
13435;SDS011;6790;49.520;8.504;2023-01-19T06:28:25;11.17;;;6.03;;
13435;SDS011;6790;49.520;8.504;2023-01-19T06:30:51;13.63;;;7.07;;
13435;SDS011;6790;49.520;8.504;2023-01-19T06:33:19;7.97;;;5.13;;
13435;SDS011;6790;49.520;8.504;2023-01-19T06:35:45;13.47;;;8.57;;
13435;SDS011;6790;49.520;8.504;2023-01-19T06:38:12;14.10;;;8.60;;
13435;SDS011;6790;49.520;8.504;2023-01-19T06:40:38;17.77;;;7.77;;
13435;SDS011;6790;49.520;8.504;2023-01-19T06:43:05;13.97;;;8.27;;
13435;SDS011;6790;49.520;8.504;2023-01-19T06:45:31;16.23;;;7.70;;
13435;SDS011;6790;49.520;8.504;2023-01-19T06:47:57;11.53;;;7.30;;
13435;SDS011;6790;49.520;8.504;2023-01-19T06:50:23;12.53;;;6.83;;
13435;SDS011;6790;49.520;8.504;2023-01-19T06:52:49;10.47;;;6.67;;
13435;SDS011;6790;49.520;8.504;2023-01-19T06:55:16;13.83;;;6.83;;
13435;SDS011;6790;49.520;8.504;2023-01-19T06:57:42;13.07;;;7.13;;
13435;SDS011;6790;49.520;8.504;2023-01-19T07:00:09;10.60;;;7.03;;
13435;SDS011;6790;49.520;8.504;2023-01-19T07:02:39;22.00;;;10.93;;
13435;SDS011;6790;49.520;8.504;2023-01-19T07:05:09;15.97;;;9.27;;
13435;SDS011;6790;49.520;8.504;2023-01-19T07:07:38;16.53;;;7.37;;
13435;SDS011;6790;49.520;8.504;2023-01-19T07:10:08;10.03;;;6.93;;
13435;SDS011;6790;49.520;8.504;2023-01-19T07:12:39;11.97;;;6.93;;
13435;SDS011;6790;49.520;8.504;2023-01-19T07:15:05;12.97;;;7.33;;
13435;SDS011;6790;49.520;8.504;2023-01-19T07:17:33;12.50;;;7.73;;
13435;SDS011;6790;49.520;8.504;2023-01-19T07:19:59;9.73;;;7.20;;
13435;SDS011;6790;49.520;8.504;2023-01-19T07:22:24;11.40;;;7.40;;
13435;SDS011;6790;49.520;8.504;2023-01-19T07:24:50;14.90;;;9.47;;
13435;SDS011;6790;49.520;8.504;2023-01-19T07:27:15;24.67;;;10.10;;
13435;SDS011;6790;49.520;8.504;2023-01-19T07:29:41;13.87;;;8.20;;
13435;SDS011;6790;49.520;8.504;2023-01-19T07:32:07;11.30;;;7.00;;
13435;SDS011;6790;49.520;8.504;2023-01-19T07:34:33;14.23;;;7.17;;
13435;SDS011;6790;49.520;8.504;2023-01-19T07:36:59;16.10;;;7.67;;
13435;SDS011;6790;49.520;8.504;2023-01-19T07:39:25;15.63;;;9.33;;
13435;SDS011;6790;49.520;8.504;2023-01-19T07:41:51;14.70;;;8.70;;
13435;SDS011;6790;49.520;8.504;2023-01-19T07:44:17;20.00;;;11.13;;
13435;SDS011;6790;49.520;8.504;2023-01-19T07:46:43;20.83;;;11.23;;
13435;SDS011;6790;49.520;8.504;2023-01-19T07:49:08;19.03;;;11.10;;
13435;SDS011;6790;49.520;8.504;2023-01-19T07:51:34;13.50;;;8.00;;
13435;SDS011;6790;49.520;8.504;2023-01-19T07:54:00;12.33;;;7.13;;
13435;SDS011;6790;49.520;8.504;2023-01-19T07:56:26;13.23;;;8.50;;
13435;SDS011;6790;49.520;8.504;2023-01-19T07:58:54;14.53;;;7.20;;
13435;SDS011;6790;49.520;8.504;2023-01-19T08:01:20;14.77;;;7.00;;
13435;SDS011;6790;49.520;8.504;2023-01-19T08:03:46;18.40;;;7.93;;
13435;SDS011;6790;49.520;8.504;2023-01-19T08:06:22;12.37;;;8.50;;
13435;SDS011;6790;49.520;8.504;2023-01-19T08:08:57;19.53;;;7.50;;
13435;SDS011;6790;49.520;8.504;2023-01-19T08:11:23;14.07;;;8.47;;
13435;SDS011;6790;49.520;8.504;2023-01-19T08:13:49;10.13;;;6.53;;
13435;SDS011;6790;49.520;8.504;2023-01-19T08:16:15;15.80;;;8.90;;
13435;SDS011;6790;49.520;8.504;2023-01-19T08:18:40;11.47;;;7.07;;
13435;SDS011;6790;49.520;8.504;2023-01-19T08:21:06;13.27;;;7.60;;
13435;SDS011;6790;49.520;8.504;2023-01-19T08:23:32;23.57;;;9.73;;
13435;SDS011;6790;49.520;8.504;2023-01-19T08:25:58;15.37;;;9.57;;
13435;SDS011;6790;49.520;8.504;2023-01-19T08:28:24;13.80;;;8.37;;
13435;SDS011;6790;49.520;8.504;2023-01-19T08:30:50;15.03;;;7.30;;
13435;SDS011;6790;49.520;8.504;2023-01-19T08:33:19;13.47;;;7.40;;
13435;SDS011;6790;49.520;8.504;2023-01-19T08:35:47;16.83;;;9.30;;
13435;SDS011;6790;49.520;8.504;2023-01-19T08:38:17;13.03;;;8.60;;
13435;SDS011;6790;49.520;8.504;2023-01-19T08:40:43;16.50;;;9.97;;
13435;SDS011;6790;49.520;8.504;2023-01-19T08:43:10;14.30;;;9.13;;
13435;SDS011;6790;49.520;8.504;2023-01-19T08:45:40;10.77;;;6.83;;
13435;SDS011;6790;49.520;8.504;2023-01-19T08:48:12;20.33;;;9.07;;
13435;SDS011;6790;49.520;8.504;2023-01-19T08:50:39;16.30;;;8.80;;
13435;SDS011;6790;49.520;8.504;2023-01-19T08:53:05;11.57;;;7.20;;
13435;SDS011;6790;49.520;8.504;2023-01-19T08:55:32;14.83;;;8.50;;
13435;SDS011;6790;49.520;8.504;2023-01-19T08:58:01;16.03;;;7.40;;
13435;SDS011;6790;49.520;8.504;2023-01-19T09:00:29;10.90;;;7.30;;
13435;SDS011;6790;49.520;8.504;2023-01-19T09:02:57;17.03;;;8.77;;
13435;SDS011;6790;49.520;8.504;2023-01-19T09:05:24;18.27;;;9.33;;
13435;SDS011;6790;49.520;8.504;2023-01-19T09:07:49;14.43;;;7.83;;
13435;SDS011;6790;49.520;8.504;2023-01-19T09:10:15;18.87;;;9.13;;
13435;SDS011;6790;49.520;8.504;2023-01-19T09:12:42;13.40;;;8.27;;
13435;SDS011;6790;49.520;8.504;2023-01-19T09:15:10;11.53;;;6.67;;
13435;SDS011;6790;49.520;8.504;2023-01-19T09:17:37;14.93;;;8.23;;
13435;SDS011;6790;49.520;8.504;2023-01-19T09:20:06;12.03;;;7.07;;
13435;SDS011;6790;49.520;8.504;2023-01-19T09:22:32;19.93;;;7.83;;
13435;SDS011;6790;49.520;8.504;2023-01-19T09:24:58;14.67;;;7.37;;
13435;SDS011;6790;49.520;8.504;2023-01-19T09:27:24;16.33;;;7.80;;
13435;SDS011;6790;49.520;8.504;2023-01-19T09:29:50;13.07;;;7.37;;
13435;SDS011;6790;49.520;8.504;2023-01-19T09:32:18;16.33;;;8.03;;
13435;SDS011;6790;49.520;8.504;2023-01-19T09:34:45;14.50;;;8.17;;
13435;SDS011;6790;49.520;8.504;2023-01-19T09:37:12;10.73;;;6.43;;
13435;SDS011;6790;49.520;8.504;2023-01-19T09:39:39;14.80;;;7.97;;
13435;SDS011;6790;49.520;8.504;2023-01-19T09:42:07;13.30;;;6.63;;
13435;SDS011;6790;49.520;8.504;2023-01-19T09:45:07;9.10;;;6.23;;
13435;SDS011;6790;49.520;8.504;2023-01-19T09:48:20;8.90;;;6.07;;
13435;SDS011;6790;49.520;8.504;2023-01-19T09:50:58;14.63;;;7.83;;
13435;SDS011;6790;49.520;8.504;2023-01-19T09:56:20;14.50;;;8.17;;
13435;SDS011;6790;49.520;8.504;2023-01-19T09:58:47;10.87;;;6.63;;
13435;SDS011;6790;49.520;8.504;2023-01-19T10:01:20;12.03;;;6.30;;
13435;SDS011;6790;49.520;8.504;2023-01-19T10:09:59;14.53;;;7.87;;
13435;SDS011;6790;49.520;8.504;2023-01-19T10:12:54;9.73;;;6.13;;
13435;SDS011;6790;49.520;8.504;2023-01-19T10:16:03;13.50;;;7.73;;
13435;SDS011;6790;49.520;8.504;2023-01-19T10:18:49;13.53;;;7.17;;
13435;SDS011;6790;49.520;8.504;2023-01-19T10:21:22;21.87;;;7.50;;
13435;SDS011;6790;49.520;8.504;2023-01-19T10:26:52;9.53;;;6.07;;
13435;SDS011;6790;49.520;8.504;2023-01-19T10:32:07;14.23;;;7.10;;
13435;SDS011;6790;49.520;8.504;2023-01-19T10:34:36;10.30;;;6.83;;
13435;SDS011;6790;49.520;8.504;2023-01-19T10:40:01;13.67;;;7.80;;
13435;SDS011;6790;49.520;8.504;2023-01-19T10:46:06;13.77;;;7.53;;
13435;SDS011;6790;49.520;8.504;2023-01-19T10:48:42;16.03;;;8.03;;
13435;SDS011;6790;49.520;8.504;2023-01-19T10:51:09;12.70;;;7.57;;
13435;SDS011;6790;49.520;8.504;2023-01-19T10:53:35;12.60;;;7.37;;
13435;SDS011;6790;49.520;8.504;2023-01-19T10:56:35;13.50;;;7.37;;
13435;SDS011;6790;49.520;8.504;2023-01-19T10:58:59;10.80;;;7.03;;
13435;SDS011;6790;49.520;8.504;2023-01-19T11:01:28;15.03;;;7.57;;
13435;SDS011;6790;49.520;8.504;2023-01-19T11:03:55;12.80;;;6.80;;
13435;SDS011;6790;49.520;8.504;2023-01-19T11:06:29;12.13;;;6.97;;
13435;SDS011;6790;49.520;8.504;2023-01-19T11:09:16;11.03;;;7.00;;
13435;SDS011;6790;49.520;8.504;2023-01-19T11:11:51;10.77;;;6.97;;
13435;SDS011;6790;49.520;8.504;2023-01-19T11:14:23;11.43;;;7.40;;
13435;SDS011;6790;49.520;8.504;2023-01-19T11:16:51;12.03;;;7.33;;
13435;SDS011;6790;49.520;8.504;2023-01-19T11:19:26;15.37;;;6.80;;
13435;SDS011;6790;49.520;8.504;2023-01-19T11:22:10;11.27;;;6.27;;
13435;SDS011;6790;49.520;8.504;2023-01-19T11:24:46;11.20;;;6.90;;
13435;SDS011;6790;49.520;8.504;2023-01-19T11:27:17;15.43;;;7.67;;
13435;SDS011;6790;49.520;8.504;2023-01-19T11:29:46;11.73;;;6.50;;
13435;SDS011;6790;49.520;8.504;2023-01-19T11:32:21;10.10;;;6.13;;
13435;SDS011;6790;49.520;8.504;2023-01-19T11:34:47;10.47;;;6.53;;
13435;SDS011;6790;49.520;8.504;2023-01-19T11:39:49;11.13;;;7.40;;
13435;SDS011;6790;49.520;8.504;2023-01-19T11:42:17;14.73;;;9.27;;
13435;SDS011;6790;49.520;8.504;2023-01-19T11:47:29;15.03;;;8.13;;
13435;SDS011;6790;49.520;8.504;2023-01-19T11:50:05;19.50;;;9.10;;
13435;SDS011;6790;49.520;8.504;2023-01-19T11:52:58;13.27;;;6.80;;
13435;SDS011;6790;49.520;8.504;2023-01-19T11:58:00;15.60;;;8.83;;
13435;SDS011;6790;49.520;8.504;2023-01-19T12:00:32;15.97;;;9.07;;
13435;SDS011;6790;49.520;8.504;2023-01-19T12:06:15;11.13;;;7.10;;
13435;SDS011;6790;49.520;8.504;2023-01-19T12:11:36;14.57;;;7.83;;
13435;SDS011;6790;49.520;8.504;2023-01-19T12:14:15;10.97;;;6.77;;
13435;SDS011;6790;49.520;8.504;2023-01-19T12:16:46;10.90;;;6.00;;
13435;SDS011;6790;49.520;8.504;2023-01-19T12:19:17;17.83;;;10.67;;
13435;SDS011;6790;49.520;8.504;2023-01-19T12:21:48;24.73;;;14.30;;
13435;SDS011;6790;49.520;8.504;2023-01-19T12:24:22;59.97;;;34.83;;
13435;SDS011;6790;49.520;8.504;2023-01-19T12:27:00;14.47;;;8.13;;
13435;SDS011;6790;49.520;8.504;2023-01-19T12:29:42;12.23;;;7.23;;
13435;SDS011;6790;49.520;8.504;2023-01-19T12:39:55;10.17;;;6.77;;
13435;SDS011;6790;49.520;8.504;2023-01-19T12:42:24;12.37;;;7.00;;
13435;SDS011;6790;49.520;8.504;2023-01-19T12:45:00;10.63;;;7.87;;
13435;SDS011;6790;49.520;8.504;2023-01-19T12:47:31;10.53;;;6.23;;
13435;SDS011;6790;49.520;8.504;2023-01-19T12:49:58;11.40;;;6.40;;
13435;SDS011;6790;49.520;8.504;2023-01-19T12:52:41;9.67;;;5.43;;
13435;SDS011;6790;49.520;8.504;2023-01-19T12:55:37;8.53;;;5.70;;
13435;SDS011;6790;49.520;8.504;2023-01-19T13:00:46;10.23;;;6.33;;
13435;SDS011;6790;49.520;8.504;2023-01-19T13:13:28;10.50;;;5.53;;
13435;SDS011;6790;49.520;8.504;2023-01-19T13:18:45;18.30;;;6.80;;
13435;SDS011;6790;49.520;8.504;2023-01-19T13:21:33;13.03;;;6.70;;
13435;SDS011;6790;49.520;8.504;2023-01-19T13:24:00;9.53;;;5.83;;
13435;SDS011;6790;49.520;8.504;2023-01-19T13:26:32;10.47;;;6.93;;
13435;SDS011;6790;49.520;8.504;2023-01-19T13:31:32;9.50;;;5.77;;
13435;SDS011;6790;49.520;8.504;2023-01-19T13:34:00;10.60;;;6.27;;
13435;SDS011;6790;49.520;8.504;2023-01-19T13:36:29;11.33;;;6.83;;
13435;SDS011;6790;49.520;8.504;2023-01-19T13:38:59;7.63;;;5.90;;
13435;SDS011;6790;49.520;8.504;2023-01-19T13:41:34;9.43;;;6.13;;
13435;SDS011;6790;49.520;8.504;2023-01-19T13:44:06;14.10;;;8.43;;
13435;SDS011;6790;49.520;8.504;2023-01-19T13:46:45;9.27;;;6.17;;
13435;SDS011;6790;49.520;8.504;2023-01-19T13:49:14;9.37;;;5.87;;
13435;SDS011;6790;49.520;8.504;2023-01-19T13:54:58;6.77;;;4.57;;
13435;SDS011;6790;49.520;8.504;2023-01-19T13:57:26;8.47;;;4.97;;
13435;SDS011;6790;49.520;8.504;2023-01-19T14:02:35;8.17;;;4.87;;
13435;SDS011;6790;49.520;8.504;2023-01-19T14:10:41;12.07;;;5.83;;
13435;SDS011;6790;49.520;8.504;2023-01-19T14:13:29;7.27;;;4.53;;
13435;SDS011;6790;49.520;8.504;2023-01-19T14:15:57;7.90;;;5.23;;
13435;SDS011;6790;49.520;8.504;2023-01-19T14:18:34;6.73;;;4.57;;
13435;SDS011;6790;49.520;8.504;2023-01-19T14:21:01;12.03;;;5.97;;
13435;SDS011;6790;49.520;8.504;2023-01-19T14:37:24;7.53;;;5.23;;
13435;SDS011;6790;49.520;8.504;2023-01-19T14:42:22;8.27;;;5.47;;
13435;SDS011;6790;49.520;8.504;2023-01-19T14:44:52;9.77;;;5.57;;
13435;SDS011;6790;49.520;8.504;2023-01-19T14:47:23;8.30;;;5.80;;
13435;SDS011;6790;49.520;8.504;2023-01-19T14:49:57;11.03;;;5.23;;
13435;SDS011;6790;49.520;8.504;2023-01-19T14:52:40;8.53;;;5.10;;
13435;SDS011;6790;49.520;8.504;2023-01-19T14:58:14;9.87;;;5.07;;
13435;SDS011;6790;49.520;8.504;2023-01-19T15:00:43;8.33;;;5.17;;
13435;SDS011;6790;49.520;8.504;2023-01-19T15:03:10;10.73;;;5.80;;
13435;SDS011;6790;49.520;8.504;2023-01-19T15:05:46;11.63;;;4.97;;
13435;SDS011;6790;49.520;8.504;2023-01-19T15:08:34;10.53;;;5.83;;
13435;SDS011;6790;49.520;8.504;2023-01-19T15:11:02;18.67;;;10.23;;
13435;SDS011;6790;49.520;8.504;2023-01-19T15:13:40;13.20;;;6.20;;
13435;SDS011;6790;49.520;8.504;2023-01-19T15:16:08;14.53;;;10.53;;
13435;SDS011;6790;49.520;8.504;2023-01-19T15:18:34;8.17;;;5.93;;
13435;SDS011;6790;49.520;8.504;2023-01-19T15:21:00;8.10;;;5.67;;
13435;SDS011;6790;49.520;8.504;2023-01-19T15:23:27;10.43;;;6.90;;
13435;SDS011;6790;49.520;8.504;2023-01-19T15:26:00;9.13;;;5.27;;
13435;SDS011;6790;49.520;8.504;2023-01-19T15:28:28;10.60;;;6.47;;
13435;SDS011;6790;49.520;8.504;2023-01-19T15:30:54;10.23;;;6.90;;
13435;SDS011;6790;49.520;8.504;2023-01-19T15:33:22;7.73;;;4.80;;
13435;SDS011;6790;49.520;8.504;2023-01-19T15:35:51;7.93;;;4.20;;
13435;SDS011;6790;49.520;8.504;2023-01-19T15:38:17;9.53;;;5.20;;
13435;SDS011;6790;49.520;8.504;2023-01-19T15:40:43;8.20;;;4.63;;
13435;SDS011;6790;49.520;8.504;2023-01-19T15:43:10;7.00;;;4.37;;
13435;SDS011;6790;49.520;8.504;2023-01-19T15:48:06;9.40;;;6.10;;
13435;SDS011;6790;49.520;8.504;2023-01-19T15:50:37;9.67;;;7.17;;
13435;SDS011;6790;49.520;8.504;2023-01-19T15:53:05;8.33;;;5.40;;
13435;SDS011;6790;49.520;8.504;2023-01-19T15:55:39;7.93;;;5.47;;
13435;SDS011;6790;49.520;8.504;2023-01-19T15:58:04;9.20;;;4.97;;
13435;SDS011;6790;49.520;8.504;2023-01-19T16:00:30;6.90;;;4.40;;
13435;SDS011;6790;49.520;8.504;2023-01-19T16:02:58;8.80;;;5.37;;
13435;SDS011;6790;49.520;8.504;2023-01-19T16:05:25;9.23;;;4.67;;
13435;SDS011;6790;49.520;8.504;2023-01-19T16:07:50;5.80;;;3.60;;
13435;SDS011;6790;49.520;8.504;2023-01-19T16:10:16;11.33;;;5.20;;
13435;SDS011;6790;49.520;8.504;2023-01-19T16:12:43;6.00;;;4.47;;
13435;SDS011;6790;49.520;8.504;2023-01-19T16:15:09;6.23;;;4.20;;
13435;SDS011;6790;49.520;8.504;2023-01-19T16:17:35;9.67;;;5.20;;
13435;SDS011;6790;49.520;8.504;2023-01-19T16:20:02;7.83;;;4.47;;
13435;SDS011;6790;49.520;8.504;2023-01-19T16:22:28;8.43;;;4.43;;
13435;SDS011;6790;49.520;8.504;2023-01-19T16:24:54;8.10;;;4.80;;
13435;SDS011;6790;49.520;8.504;2023-01-19T16:27:20;5.17;;;3.93;;
13435;SDS011;6790;49.520;8.504;2023-01-19T16:29:47;0.33;;;0.33;;
13435;SDS011;6790;49.520;8.504;2023-01-19T16:32:13;0.40;;;0.40;;
13435;SDS011;6790;49.520;8.504;2023-01-19T16:34:38;0.50;;;0.50;;
13435;SDS011;6790;49.520;8.504;2023-01-19T16:37:04;0.40;;;0.40;;
13435;SDS011;6790;49.520;8.504;2023-01-19T16:39:30;0.30;;;0.30;;
13435;SDS011;6790;49.520;8.504;2023-01-19T16:41:55;0.40;;;0.40;;
13435;SDS011;6790;49.520;8.504;2023-01-19T16:44:21;0.40;;;0.40;;
13435;SDS011;6790;49.520;8.504;2023-01-19T16:46:47;0.50;;;0.50;;
13435;SDS011;6790;49.520;8.504;2023-01-19T16:49:24;0.40;;;0.40;;
13435;SDS011;6790;49.520;8.504;2023-01-19T16:51:51;0.40;;;0.40;;
13435;SDS011;6790;49.520;8.504;2023-01-19T16:54:22;0.20;;;0.20;;
13435;SDS011;6790;49.520;8.504;2023-01-19T16:56:53;0.50;;;0.50;;
13435;SDS011;6790;49.520;8.504;2023-01-19T16:59:20;0.40;;;0.40;;
13435;SDS011;6790;49.520;8.504;2023-01-19T17:01:47;0.47;;;0.47;;
13435;SDS011;6790;49.520;8.504;2023-01-19T17:04:17;0.40;;;0.40;;
13435;SDS011;6790;49.520;8.504;2023-01-19T17:06:44;0.50;;;0.50;;